createdAt,value
2018-04-24T00:04:14.616Z,74.47
2018-04-24T00:10:19.011Z,74.47
2018-04-24T00:16:23.360Z,74.57
2018-04-24T00:22:27.717Z,74.71
2018-04-24T00:28:32.078Z,75.17
2018-04-24T00:34:36.428Z,75.19
2018-04-24T00:40:40.765Z,75.23
2018-04-24T00:46:45.128Z,75.28
2018-04-24T00:52:50.239Z,75.29
2018-04-24T00:58:54.581Z,75.47
2018-04-24T01:04:58.921Z,75.57
2018-04-24T01:11:03.273Z,75.00
2018-04-24T01:17:07.626Z,75.58
2018-04-24T01:23:11.996Z,75.33
2018-04-24T01:29:17.101Z,75.58
2018-04-24T01:35:21.441Z,75.99
2018-04-24T01:41:25.832Z,76.97
2018-04-24T01:47:30.954Z,77.38
2018-04-24T01:53:35.317Z,77.68
2018-04-24T01:59:39.664Z,78.06
2018-04-24T02:05:44.017Z,77.66
2018-04-24T02:11:49.121Z,77.11
2018-04-24T02:17:53.462Z,77.13
2018-04-24T02:23:57.843Z,77.15
2018-04-24T02:30:02.968Z,77.15
2018-04-24T02:36:08.417Z,77.95
2018-04-24T02:42:12.762Z,78.70
2018-04-24T02:48:17.117Z,78.51
2018-04-24T02:54:21.454Z,79.19
2018-04-24T03:00:25.792Z,79.75
2018-04-24T03:06:30.171Z,80.10
2018-04-24T03:12:34.522Z,79.78
2018-04-24T03:18:38.838Z,79.83
2018-04-24T03:24:43.176Z,79.29
2018-04-24T03:30:47.537Z,78.81
2018-04-24T03:36:51.874Z,78.63
2018-04-24T03:42:56.233Z,78.80
2018-04-24T03:49:01.348Z,78.18
2018-04-24T03:55:05.693Z,77.99
2018-04-24T04:01:10.035Z,77.91
2018-04-24T04:07:14.388Z,78.15
2018-04-24T04:13:18.734Z,77.53
2018-04-24T04:19:41.480Z,77.41
2018-04-24T04:25:45.828Z,75.83
2018-04-24T04:31:50.178Z,75.58
2018-04-24T04:37:54.519Z,75.37
2018-04-24T04:44:00.475Z,75.25
2018-04-24T04:50:04.862Z,75.60
2018-04-24T04:56:09.991Z,76.16
2018-04-24T05:02:14.320Z,76.62
2018-04-24T05:08:18.657Z,76.52
2018-04-24T05:14:23.767Z,76.61
2018-04-24T05:20:28.879Z,76.44
2018-04-24T05:26:33.228Z,76.40
2018-04-24T05:32:37.591Z,76.76
2018-04-24T05:38:41.963Z,75.84
2018-04-24T05:44:47.080Z,74.38
2018-04-24T05:50:52.212Z,73.40
2018-04-24T05:56:56.568Z,70.23
2018-04-24T06:03:00.927Z,69.71
2018-04-24T06:09:06.118Z,70.71
2018-04-24T06:15:11.286Z,67.94
2018-04-24T06:21:15.621Z,69.08
2018-04-24T06:27:20.006Z,68.58
2018-04-24T06:33:24.404Z,67.37
2018-04-24T06:39:28.761Z,67.37
2018-04-24T06:45:33.109Z,64.36
2018-04-24T06:51:37.488Z,62.36
2018-04-24T06:57:41.824Z,59.95
2018-04-24T07:03:46.169Z,60.71
2018-04-24T07:09:50.508Z,59.23
2018-04-24T07:15:54.849Z,58.67
2018-04-24T07:21:59.191Z,58.52
2018-04-24T07:28:03.541Z,57.29
2018-04-24T07:34:07.908Z,58.12
2018-04-24T07:40:13.017Z,57.32
2018-04-24T07:46:18.134Z,55.90
2018-04-24T07:52:22.476Z,53.45
2018-04-24T07:58:26.802Z,52.73
2018-04-24T08:04:31.922Z,53.67
2018-04-24T08:10:36.255Z,54.57
2018-04-24T08:16:40.589Z,55.96
2018-04-24T08:22:45.003Z,58.85
2018-04-24T08:28:49.267Z,58.33
2018-04-24T08:34:53.611Z,57.67
2018-04-24T08:40:57.989Z,58.04
2018-04-24T08:47:02.329Z,57.88
2018-04-24T08:53:06.651Z,57.35
2018-04-24T08:59:11.817Z,58.36
2018-04-24T09:05:16.173Z,58.35
2018-04-24T09:11:20.520Z,58.64
2018-04-24T09:17:24.857Z,59.50
2018-04-24T09:23:29.986Z,59.72
2018-04-24T09:29:34.325Z,60.64
2018-04-24T09:35:38.661Z,58.65
2018-04-24T09:41:43.096Z,57.63
2018-04-24T09:47:47.451Z,57.29
2018-04-24T09:53:51.805Z,56.05
2018-04-24T09:59:56.148Z,56.46
2018-04-24T10:06:00.499Z,57.74
2018-04-24T10:12:04.857Z,60.48
2018-04-24T10:18:09.987Z,62.52
2018-04-24T10:24:14.326Z,63.70
2018-04-24T10:30:18.659Z,65.35
2018-04-24T10:36:23.613Z,66.32
2018-04-24T10:42:27.947Z,65.81
2018-04-24T10:48:32.301Z,62.80
2018-04-24T10:54:36.685Z,62.58
2018-04-24T11:00:41.093Z,63.47
2018-04-24T11:06:45.457Z,63.69
2018-04-24T11:12:49.733Z,63.32
2018-04-24T11:18:54.078Z,63.12
2018-04-24T11:24:58.439Z,62.45
2018-04-24T11:31:02.793Z,62.72
2018-04-24T11:37:07.133Z,60.98
2018-04-24T11:43:11.489Z,59.53
2018-04-24T11:49:15.839Z,58.41
2018-04-24T11:55:20.943Z,58.41
2018-04-24T12:01:25.284Z,58.27
2018-04-24T12:07:29.629Z,57.85
2018-04-24T12:13:33.997Z,58.28
2018-04-24T12:19:38.353Z,58.13
2018-04-24T12:25:43.479Z,57.27
2018-04-24T12:31:47.868Z,54.93
2018-04-24T12:37:53.044Z,51.91
2018-04-24T12:43:57.384Z,50.42
2018-04-24T12:50:01.716Z,48.62
2018-04-24T12:56:06.103Z,50.63
2018-04-24T13:02:10.437Z,52.19
2018-04-24T13:08:14.783Z,53.55
2018-04-24T13:14:19.148Z,53.68
2018-04-24T13:20:23.589Z,54.01
2018-04-24T13:26:27.923Z,54.27
2018-04-24T13:32:32.269Z,50.29
2018-04-24T13:38:36.608Z,50.85
2018-04-24T13:44:40.949Z,50.51
2018-04-24T13:50:45.290Z,48.58
2018-04-24T13:56:49.620Z,48.97
2018-04-24T14:02:53.954Z,50.68
2018-04-24T14:08:58.324Z,52.26
2018-04-24T14:15:02.688Z,51.47
2018-04-24T14:21:07.794Z,50.78
2018-04-24T14:27:12.120Z,53.01
2018-04-24T14:33:16.479Z,52.62
2018-04-24T14:39:20.881Z,57.15
2018-04-24T14:45:25.216Z,57.18
2018-04-24T14:51:29.581Z,58.26
2018-04-24T14:57:33.923Z,57.41
2018-04-24T15:03:38.274Z,59.58
2018-04-24T15:09:42.616Z,58.23
2018-04-24T15:15:46.964Z,59.33
2018-04-24T15:21:51.310Z,58.68
2018-04-24T15:27:55.671Z,60.60
2018-04-24T15:34:00.007Z,60.66
2018-04-24T15:40:04.348Z,59.74
2018-04-24T15:46:08.703Z,59.42
2018-04-24T15:52:13.821Z,59.39
2018-04-24T15:58:18.170Z,59.51
2018-04-24T16:04:22.516Z,60.39
2018-04-24T16:10:26.895Z,60.23
2018-04-24T16:16:31.269Z,61.00
2018-04-24T16:22:35.631Z,59.67
2018-04-24T16:28:40.006Z,59.37
2018-04-24T16:34:45.129Z,58.09
2018-04-24T16:40:49.475Z,55.54
2018-04-24T16:46:53.851Z,54.62
2018-04-24T16:52:59.031Z,56.74
2018-04-24T16:59:03.402Z,56.69
2018-04-24T17:05:07.769Z,59.53
2018-04-24T17:11:12.122Z,59.90
2018-04-24T17:17:17.252Z,60.56
2018-04-24T17:23:21.599Z,61.76
2018-04-24T17:29:25.962Z,61.75
2018-04-24T17:35:30.313Z,62.39
2018-04-24T17:41:35.426Z,61.87
2018-04-24T17:47:39.777Z,63.00
2018-04-24T17:53:44.133Z,64.98
2018-04-24T17:59:48.504Z,65.82
2018-04-24T18:05:53.608Z,67.21
2018-04-24T18:11:57.960Z,67.79
2018-04-24T18:18:02.307Z,69.18
2018-04-24T18:24:06.673Z,70.71
2018-04-24T18:30:11.793Z,71.85
2018-04-24T18:36:16.922Z,72.62
2018-04-24T18:42:21.260Z,73.85
2018-04-24T18:48:25.620Z,74.00
2018-04-24T18:54:29.982Z,74.41
2018-04-24T19:00:34.329Z,74.62
2018-04-24T19:06:38.716Z,74.89
2018-04-24T19:12:43.083Z,75.69
2018-04-24T19:18:52.797Z,75.48
2018-04-24T19:31:46.356Z,75.53
2018-04-24T19:37:50.823Z,75.82
2018-04-24T19:43:55.202Z,76.08
2018-04-24T19:50:05.790Z,76.08
2018-04-24T19:56:10.934Z,75.94
2018-04-24T20:02:15.387Z,75.62
2018-04-24T20:08:19.859Z,75.46
2018-04-24T20:14:24.289Z,74.98
2018-04-24T20:20:28.701Z,74.18
2018-04-24T20:26:33.947Z,74.50
2018-04-24T20:32:38.417Z,73.66
2018-04-24T20:38:42.950Z,73.83
2018-04-24T20:44:47.320Z,73.91
2018-04-24T20:50:52.527Z,74.18
2018-04-24T20:56:57.088Z,74.60
2018-04-24T21:03:02.252Z,75.12
2018-04-24T21:09:07.551Z,75.51
2018-04-24T21:15:11.959Z,76.10
2018-04-24T21:21:17.088Z,75.96
2018-04-24T21:27:21.546Z,76.28
2018-04-24T21:33:26.071Z,76.44
2018-04-24T21:39:30.559Z,76.01
2018-04-24T21:45:35.584Z,75.79
2018-04-24T21:51:40.034Z,75.83
2018-04-24T21:57:44.411Z,76.05
2018-04-24T22:03:48.801Z,75.73
2018-04-24T22:09:54.791Z,75.58
2018-04-24T22:15:59.331Z,75.90
2018-04-24T22:22:03.687Z,76.26
2018-04-24T22:28:08.176Z,76.81
2018-04-24T22:34:12.750Z,77.41
2018-04-24T22:40:17.222Z,77.27
2018-04-24T22:46:21.590Z,77.55
2018-04-24T22:52:26.047Z,77.60
2018-04-24T22:58:30.524Z,77.46
2018-04-24T23:04:35.008Z,77.44
2018-04-24T23:10:57.976Z,77.46
2018-04-24T23:17:25.997Z,77.38
2018-04-24T23:23:36.378Z,77.53
2018-04-24T23:29:40.729Z,78.42
2018-04-24T23:35:45.953Z,78.22
2018-04-24T23:41:50.316Z,78.40
2018-04-24T23:47:55.660Z,78.89
2018-04-24T23:54:00.067Z,79.12
